Time;durP1;ratioP1;P1;durP2;ratioP2;P2;SDS_P1;SDS_P2;PMS_P1;PMS_P2;Temp;Humidity;BMP_temperature;BMP_pressure;BME280_temperature;BME280_humidity;BME280_pressure;Samples;Min_cycle;Max_cycle;Signal;HPM_P1;HPM_P2
2024/01/02 00:01:08;;;;;;;9.60;3.50;;;5.40;99.90;;;;;;5052590;28;20113;-73
2024/01/02 00:03:35;;;;;;;11.55;3.38;;;5.40;99.90;;;;;;5051796;28;20056;-73
2024/01/02 00:06:02;;;;;;;10.55;3.33;;;5.40;99.90;;;;;;5053010;28;20067;-72
2024/01/02 00:08:29;;;;;;;8.40;3.13;;;5.40;99.90;;;;;;5051900;28;20557;-73
2024/01/02 00:10:56;;;;;;;14.85;3.85;;;5.50;99.90;;;;;;5052176;28;20107;-72
2024/01/02 00:13:25;;;;;;;8.75;3.42;;;5.40;99.90;;;;;;5051099;28;20045;-73
2024/01/02 00:15:51;;;;;;;13.60;3.85;;;5.50;99.90;;;;;;5051197;28;20495;-73
2024/01/02 00:18:18;;;;;;;8.45;3.75;;;5.40;99.90;;;;;;5053880;28;20049;-73
2024/01/02 00:20:45;;;;;;;10.82;3.47;;;5.50;99.90;;;;;;5053680;28;20391;-73
2024/01/02 00:23:12;;;;;;;10.68;3.65;;;5.40;99.90;;;;;;5049578;28;20441;-73
2024/01/02 00:25:39;;;;;;;10.30;4.05;;;5.40;99.90;;;;;;5051972;28;20056;-72
2024/01/02 00:28:06;;;;;;;8.45;3.58;;;5.40;99.90;;;;;;5051815;28;20045;-73
2024/01/02 00:30:34;;;;;;;11.05;4.13;;;5.40;99.90;;;;;;5051530;28;20407;-73
2024/01/02 00:33:03;;;;;;;11.98;3.20;;;5.40;99.90;;;;;;5051984;28;20098;-72
2024/01/02 00:35:30;;;;;;;9.73;4.38;;;5.40;99.90;;;;;;5051882;28;20498;-73
2024/01/02 00:37:57;;;;;;;6.10;3.03;;;5.40;99.90;;;;;;5051956;28;20079;-72
2024/01/02 00:40:24;;;;;;;11.50;3.83;;;5.40;99.90;;;;;;5052769;28;20430;-72
2024/01/02 00:42:50;;;;;;;9.45;4.28;;;5.40;99.90;;;;;;5050152;28;20736;-72
2024/01/02 00:45:17;;;;;;;12.00;3.90;;;5.40;99.90;;;;;;5052115;28;20083;-72
2024/01/02 00:47:45;;;;;;;12.27;3.55;;;5.40;99.90;;;;;;5050470;28;20496;-72
2024/01/02 00:50:12;;;;;;;10.80;3.88;;;5.50;99.90;;;;;;5051114;28;20044;-72
2024/01/02 00:52:39;;;;;;;6.05;3.25;;;5.40;99.90;;;;;;5050335;28;20507;-72
2024/01/02 00:55:08;;;;;;;7.88;3.10;;;5.50;99.90;;;;;;5051333;28;20496;-72
2024/01/02 00:57:35;;;;;;;10.32;3.35;;;5.50;99.90;;;;;;5067576;28;20040;-73
2024/01/02 01:00:04;;;;;;;10.05;3.38;;;5.50;99.90;;;;;;5051122;28;20060;-72
2024/01/02 01:02:30;;;;;;;7.95;2.78;;;5.50;99.90;;;;;;5051760;28;20052;-72
2024/01/02 01:04:59;;;;;;;9.00;2.92;;;5.50;99.90;;;;;;5050863;28;20448;-72
2024/01/02 01:07:26;;;;;;;5.78;3.35;;;5.50;99.90;;;;;;5055286;28;20047;-73
2024/01/02 01:09:53;;;;;;;16.50;3.78;;;5.50;99.90;;;;;;5054349;28;20076;-72
2024/01/02 01:12:20;;;;;;;8.85;2.75;;;5.50;99.90;;;;;;5054409;28;20048;-73
2024/01/02 01:14:47;;;;;;;6.85;2.80;;;5.50;99.90;;;;;;5055843;28;20052;-72
2024/01/02 01:17:13;;;;;;;6.80;3.10;;;5.50;99.90;;;;;;5054318;28;20048;-72
2024/01/02 01:19:41;;;;;;;7.82;2.63;;;5.50;99.90;;;;;;5053537;28;20098;-72
2024/01/02 01:22:09;;;;;;;14.50;3.60;;;5.50;99.90;;;;;;5054213;28;20080;-72
2024/01/02 01:24:36;;;;;;;6.38;2.60;;;5.50;99.90;;;;;;5053772;28;20055;-72
2024/01/02 01:27:03;;;;;;;6.40;2.72;;;5.50;99.90;;;;;;5053817;28;20045;-72
2024/01/02 01:29:30;;;;;;;9.07;2.70;;;5.50;99.90;;;;;;5054927;28;20049;-72
2024/01/02 01:31:57;;;;;;;9.73;3.33;;;5.60;99.90;;;;;;5055010;28;20052;-73
2024/01/02 01:34:24;;;;;;;6.88;3.30;;;5.60;99.90;;;;;;5054394;28;20048;-72
2024/01/02 01:36:51;;;;;;;7.88;2.90;;;5.60;99.90;;;;;;5053365;28;20101;-72
2024/01/02 01:39:20;;;;;;;9.80;3.00;;;6.50;99.90;;;;;;5053438;28;20070;-71
2024/01/02 01:41:47;;;;;;;10.90;2.97;;;5.60;99.90;;;;;;5054798;28;20484;-72
2024/01/02 01:44:14;;;;;;;8.23;2.35;;;5.70;99.90;;;;;;5053428;28;20440;-71
2024/01/02 01:46:41;;;;;;;8.02;2.78;;;5.60;99.90;;;;;;5054064;28;20044;-72
2024/01/02 01:49:10;;;;;;;8.57;2.88;;;5.70;99.90;;;;;;5054897;28;20048;-72
2024/01/02 01:51:40;;;;;;;9.30;3.35;;;5.70;99.90;;;;;;5053924;28;20052;-72
2024/01/02 01:54:07;;;;;;;11.63;2.83;;;5.70;99.90;;;;;;5053606;28;20045;-72
2024/01/02 01:56:38;;;;;;;17.23;2.90;;;5.60;99.90;;;;;;5053103;28;20053;-72
2024/01/02 01:59:05;;;;;;;;;;;5.70;99.90;;;;;;5054142;28;20404;-73
2024/01/02 02:01:33;;;;;;;11.82;3.00;;;5.80;99.90;;;;;;5054234;28;19927;-72
2024/01/02 02:04:01;;;;;;;9.02;3.10;;;5.70;99.90;;;;;;5053217;28;20103;-72
2024/01/02 02:06:28;;;;;;;12.57;3.30;;;5.70;99.90;;;;;;5053772;28;20411;-72
2024/01/02 02:08:55;;;;;;;7.10;2.80;;;5.80;99.90;;;;;;5054898;28;20052;-72
2024/01/02 02:11:22;;;;;;;11.88;3.35;;;5.80;99.90;;;;;;5053815;28;20044;-74
2024/01/02 02:13:50;;;;;;;9.20;3.10;;;5.80;99.90;;;;;;5054410;28;20048;-72
2024/01/02 02:16:17;;;;;;;16.58;3.17;;;5.80;99.90;;;;;;5052936;28;20053;-72
2024/01/02 02:18:44;;;;;;;13.73;3.15;;;5.80;99.90;;;;;;5054410;28;20048;-72
2024/01/02 02:21:11;;;;;;;8.38;3.33;;;5.80;99.90;;;;;;5052308;28;20053;-72
2024/01/02 02:23:39;;;;;;;8.95;2.88;;;5.80;99.90;;;;;;5053643;28;20051;-71
2024/01/02 02:26:06;;;;;;;12.65;3.20;;;5.80;99.90;;;;;;5055892;28;20118;-72
2024/01/02 02:28:33;;;;;;;10.10;3.10;;;5.90;99.90;;;;;;5052545;28;20041;-72
2024/01/02 02:31:00;;;;;;;9.88;3.13;;;5.90;99.90;;;;;;5052470;28;20121;-73
2024/01/02 02:33:27;;;;;;;7.53;3.13;;;5.90;99.90;;;;;;5052915;28;20047;-72
2024/01/02 02:35:54;;;;;;;8.18;3.17;;;6.00;99.90;;;;;;5054002;28;20109;-71
2024/01/02 02:38:21;;;;;;;13.13;3.55;;;5.90;99.90;;;;;;5052884;28;20036;-72
2024/01/02 02:40:49;;;;;;;6.80;3.30;;;5.90;99.90;;;;;;5053984;28;20048;-72
2024/01/02 02:43:16;;;;;;;8.38;3.53;;;5.90;99.90;;;;;;5053392;28;20053;-72
2024/01/02 02:45:43;;;;;;;8.18;3.92;;;5.90;99.90;;;;;;5053883;28;20049;-72
2024/01/02 02:48:10;;;;;;;14.20;4.55;;;6.00;99.90;;;;;;5051866;28;20562;-72
2024/01/02 02:50:37;;;;;;;12.00;4.82;;;6.00;99.90;;;;;;5052936;28;20059;-72
2024/01/02 02:53:04;;;;;;;7.90;4.32;;;6.20;99.90;;;;;;5052049;28;20052;-72
2024/01/02 02:55:31;;;;;;;11.38;4.47;;;6.00;99.90;;;;;;5054845;28;20097;-72
2024/01/02 02:57:59;;;;;;;8.00;4.80;;;6.00;99.90;;;;;;5054202;28;20059;-72
2024/01/02 03:00:26;;;;;;;11.50;4.70;;;6.00;99.90;;;;;;5052577;28;20045;-72
2024/01/02 03:02:52;;;;;;;10.73;4.30;;;6.00;99.90;;;;;;5053431;28;20105;-73
2024/01/02 03:05:19;;;;;;;9.07;4.93;;;6.00;99.90;;;;;;5052531;28;20052;-73
2024/01/02 03:07:46;;;;;;;11.10;5.28;;;6.00;99.90;;;;;;5053721;28;20056;-73
2024/01/02 03:10:14;;;;;;;10.77;5.57;;;6.00;99.90;;;;;;5051652;28;20053;-72
2024/01/02 03:12:41;;;;;;;8.07;4.93;;;6.00;99.90;;;;;;5053140;28;20097;-73
2024/01/02 03:15:10;;;;;;;6.95;4.90;;;6.00;99.90;;;;;;5053687;28;20125;-73
2024/01/02 03:17:37;;;;;;;11.82;4.80;;;6.10;99.90;;;;;;5051836;28;20048;-73
2024/01/02 03:20:05;;;;;;;11.23;5.28;;;6.10;99.90;;;;;;5053439;28;20488;-74
2024/01/02 03:22:32;;;;;;;7.38;4.28;;;6.00;99.90;;;;;;5051870;28;20195;-74
2024/01/02 03:24:58;;;;;;;9.48;4.50;;;6.00;99.90;;;;;;5052611;28;20450;-73
2024/01/02 03:27:25;;;;;;;12.30;4.50;;;6.10;99.90;;;;;;5051360;28;20127;-73
2024/01/02 03:29:52;;;;;;;7.72;4.20;;;6.00;99.90;;;;;;5052318;28;20040;-73
2024/01/02 03:32:20;;;;;;;8.07;4.53;;;6.00;99.90;;;;;;5051321;28;20048;-73
2024/01/02 03:34:50;;;;;;;10.02;4.30;;;6.00;99.90;;;;;;5052572;28;20040;-73
2024/01/02 03:37:17;;;;;;;11.88;5.72;;;6.00;99.90;;;;;;5053328;28;20515;-73
2024/01/02 03:39:44;;;;;;;8.82;4.40;;;6.00;99.90;;;;;;5051097;28;20089;-73
2024/01/02 03:42:11;;;;;;;13.27;4.30;;;6.00;99.90;;;;;;5053361;28;20049;-73
2024/01/02 03:44:37;;;;;;;4.57;3.40;;;6.00;99.90;;;;;;5051657;28;20110;-73
2024/01/02 03:47:05;;;;;;;11.48;4.85;;;5.90;99.90;;;;;;5052657;28;20048;-73
2024/01/02 03:49:33;;;;;;;10.15;3.80;;;6.00;99.90;;;;;;5050981;28;20112;-73
2024/01/02 03:52:00;;;;;;;11.32;3.88;;;6.00;99.90;;;;;;5052033;28;20048;-72
2024/01/02 03:54:27;;;;;;;12.30;4.07;;;5.90;99.90;;;;;;5053657;28;20048;-73
2024/01/02 03:56:53;;;;;;;7.53;4.05;;;5.90;99.90;;;;;;5054446;28;20094;-72
2024/01/02 03:59:20;;;;;;;9.63;4.05;;;5.90;99.90;;;;;;5052768;28;20047;-73
2024/01/02 04:01:47;;;;;;;10.48;4.10;;;6.00;99.90;;;;;;5051883;28;20098;-73
2024/01/02 04:04:14;;;;;;;9.35;3.65;;;6.00;99.90;;;;;;5052589;28;20110;-72
2024/01/02 04:06:43;;;;;;;10.40;3.45;;;5.90;99.90;;;;;;5050731;28;20052;-72
2024/01/02 04:09:11;;;;;;;14.35;3.50;;;5.90;99.90;;;;;;5051938;28;20048;-73
2024/01/02 04:11:38;;;;;;;6.60;3.22;;;5.90;99.90;;;;;;5052822;28;20045;-73
2024/01/02 04:14:05;;;;;;;10.70;3.97;;;5.90;99.90;;;;;;5051061;28;20052;-72
2024/01/02 04:16:32;;;;;;;5.53;3.20;;;5.90;99.90;;;;;;5052785;28;20106;-72
2024/01/02 04:18:59;;;;;;;11.50;3.40;;;5.90;99.90;;;;;;5051497;28;20377;-73
2024/01/02 04:21:25;;;;;;;8.88;4.13;;;6.00;99.90;;;;;;5051924;28;20450;-73
2024/01/02 04:23:54;;;;;;;8.00;4.15;;;5.90;99.90;;;;;;5050805;28;20046;-73
2024/01/02 04:26:20;;;;;;;8.43;3.70;;;6.00;99.90;;;;;;5051935;28;20052;-73
2024/01/02 04:28:47;;;;;;;8.77;4.03;;;5.80;99.90;;;;;;5049770;28;20041;-74
2024/01/02 04:31:14;;;;;;;7.10;3.90;;;5.90;99.90;;;;;;5051952;28;20044;-73
2024/01/02 04:33:41;;;;;;;8.88;4.05;;;5.80;99.90;;;;;;5050223;28;20488;-73
2024/01/02 04:36:08;;;;;;;10.13;4.68;;;5.90;99.90;;;;;;5049330;28;20500;-73
2024/01/02 04:38:35;;;;;;;14.63;4.05;;;5.90;99.90;;;;;;5049608;28;20049;-73
2024/01/02 04:41:05;;;;;;;7.15;3.47;;;5.80;99.90;;;;;;5054408;28;20484;-73
2024/01/02 04:43:32;;;;;;;12.05;4.43;;;5.80;99.90;;;;;;5055409;28;20044;-73
2024/01/02 04:45:59;;;;;;;6.45;3.35;;;5.90;99.90;;;;;;5054298;28;20057;-73
2024/01/02 04:48:26;;;;;;;15.00;4.05;;;5.80;99.90;;;;;;5054379;28;20094;-73
2024/01/02 04:50:53;;;;;;;10.38;3.58;;;6.00;99.90;;;;;;5053704;28;20041;-73
2024/01/02 04:53:20;;;;;;;7.35;3.17;;;5.90;99.90;;;;;;5042491;28;20052;-73
2024/01/02 04:55:47;;;;;;;11.00;4.10;;;5.90;99.90;;;;;;5053113;28;20060;-74
2024/01/02 04:58:15;;;;;;;4.80;3.03;;;5.80;99.90;;;;;;5056393;28;20097;-74
2024/01/02 05:00:42;;;;;;;6.65;2.78;;;6.00;99.90;;;;;;5053800;28;20109;-74
2024/01/02 05:03:08;;;;;;;10.65;3.03;;;5.90;99.90;;;;;;5056261;28;20048;-74
2024/01/02 05:05:35;;;;;;;6.90;2.85;;;5.90;99.90;;;;;;5056818;28;20044;-74
2024/01/02 05:08:02;;;;;;;8.57;2.72;;;5.90;99.90;;;;;;5056291;28;20113;-74
2024/01/02 05:10:29;;;;;;;6.55;2.95;;;5.80;99.90;;;;;;5055786;28;20500;-75
2024/01/02 05:12:56;;;;;;;7.45;2.50;;;5.90;99.90;;;;;;5053884;28;20064;-75
2024/01/02 05:15:24;;;;;;;5.22;2.78;;;5.90;99.90;;;;;;5056376;28;20094;-75
2024/01/02 05:17:51;;;;;;;7.40;2.35;;;5.90;99.90;;;;;;5054374;28;20443;-74
2024/01/02 05:20:18;;;;;;;4.53;2.17;;;5.80;99.90;;;;;;5054312;28;20052;-75
2024/01/02 05:22:45;;;;;;;7.78;3.13;;;5.90;99.90;;;;;;5056281;28;20117;-75
2024/01/02 05:25:12;;;;;;;5.90;2.35;;;5.80;99.90;;;;;;5043798;28;20049;-74
2024/01/02 05:27:39;;;;;;;4.18;2.28;;;5.80;99.90;;;;;;5055515;28;20546;-74
2024/01/02 05:30:07;;;;;;;5.63;2.65;;;5.90;99.90;;;;;;5054110;28;20077;-74
2024/01/02 05:32:35;;;;;;;6.38;2.38;;;5.90;99.90;;;;;;5052521;28;20052;-73
2024/01/02 05:35:02;;;;;;;4.35;2.17;;;6.10;99.90;;;;;;5054379;28;20102;-74
2024/01/02 05:37:29;;;;;;;7.20;2.60;;;6.00;99.90;;;;;;5054451;28;20088;-74
2024/01/02 05:39:56;;;;;;;6.28;2.35;;;5.60;99.90;;;;;;5053939;28;20048;-74
2024/01/02 05:42:23;;;;;;;4.72;2.40;;;6.00;99.90;;;;;;5053703;28;20131;-74
2024/01/02 05:44:50;;;;;;;6.97;2.90;;;5.80;99.90;;;;;;5053022;28;20052;-73
2024/01/02 05:47:17;;;;;;;6.10;2.38;;;6.00;99.90;;;;;;5054792;28;20051;-73
2024/01/02 05:49:45;;;;;;;3.75;2.13;;;5.70;99.90;;;;;;5052733;28;20057;-73
2024/01/02 05:52:12;;;;;;;4.85;2.20;;;5.80;99.90;;;;;;5052833;28;20504;-74
2024/01/02 05:54:39;;;;;;;5.80;2.40;;;5.70;99.90;;;;;;5053016;28;20045;-74
2024/01/02 05:57:05;;;;;;;4.55;2.38;;;5.60;99.90;;;;;;5054230;28;20093;-74
2024/01/02 05:59:32;;;;;;;3.90;1.92;;;6.10;99.90;;;;;;5052181;28;20451;-75
2024/01/02 06:01:59;;;;;;;6.60;2.00;;;5.90;99.90;;;;;;5054365;28;20545;-76
2024/01/02 06:04:26;;;;;;;7.18;1.92;;;6.10;99.90;;;;;;5054566;28;20122;-75
2024/01/02 06:06:54;;;;;;;3.95;1.92;;;6.10;99.90;;;;;;5054673;28;20044;-75
2024/01/02 06:09:21;;;;;;;2.92;1.67;;;6.10;99.90;;;;;;5054408;28;20094;-75
2024/01/02 06:11:48;;;;;;;4.45;1.58;;;5.70;99.90;;;;;;5053087;28;20045;-75
2024/01/02 06:14:15;;;;;;;3.75;1.73;;;5.60;99.90;;;;;;5053839;28;20044;-75
2024/01/02 06:16:42;;;;;;;4.38;1.50;;;6.10;99.90;;;;;;5052175;28;20044;-75
2024/01/02 06:19:09;;;;;;;3.30;1.60;;;5.90;99.90;;;;;;5052991;28;20045;-75
2024/01/02 06:21:36;;;;;;;3.08;1.90;;;5.70;99.90;;;;;;5041261;28;20057;-76
2024/01/02 06:24:05;;;;;;;2.83;1.70;;;5.70;99.90;;;;;;5054930;28;20044;-76
2024/01/02 06:26:32;;;;;;;3.30;1.95;;;5.70;99.90;;;;;;5062323;28;20049;-75
2024/01/02 06:28:58;;;;;;;4.32;1.88;;;5.80;99.90;;;;;;5050230;28;20489;-75
2024/01/02 06:31:25;;;;;;;5.88;1.85;;;6.00;99.90;;;;;;5054180;28;20094;-75
2024/01/02 06:33:52;;;;;;;2.60;1.70;;;6.00;99.90;;;;;;5054537;28;20052;-75
2024/01/02 06:36:19;;;;;;;3.75;1.77;;;6.00;99.90;;;;;;5052731;28;20052;-76
2024/01/02 06:38:46;;;;;;;2.83;1.80;;;6.10;99.90;;;;;;5072932;28;20049;-76
2024/01/02 06:41:14;;;;;;;5.45;1.58;;;6.10;99.90;;;;;;5051599;28;20101;-75
2024/01/02 06:43:41;;;;;;;2.42;1.35;;;5.70;99.90;;;;;;5052813;28;20159;-76
2024/01/02 06:46:08;;;;;;;3.25;1.60;;;5.90;99.90;;;;;;5053837;28;20064;-75
2024/01/02 06:48:35;;;;;;;6.05;1.40;;;6.20;99.90;;;;;;5051239;28;20057;-75
2024/01/02 06:51:02;;;;;;;2.70;1.30;;;5.80;99.90;;;;;;5053103;28;20059;-75
2024/01/02 06:53:29;;;;;;;2.33;1.27;;;5.80;99.90;;;;;;5054829;28;20056;-76
2024/01/02 06:55:56;;;;;;;2.17;1.25;;;5.70;99.90;;;;;;5051372;28;20089;-76
2024/01/02 06:58:24;;;;;;;2.92;1.42;;;6.20;99.90;;;;;;5053924;28;20098;-75
2024/01/02 07:00:51;;;;;;;4.95;1.17;;;5.90;99.90;;;;;;5052025;28;20087;-76
2024/01/02 07:03:21;;;;;;;1.88;1.10;;;5.90;99.90;;;;;;5052368;28;20091;-75
2024/01/02 07:05:48;;;;;;;2.17;1.20;;;6.20;99.90;;;;;;5052388;28;20400;-75
2024/01/02 07:08:15;;;;;;;1.70;1.02;;;6.30;99.90;;;;;;5051861;28;20767;-75
2024/01/02 07:10:42;;;;;;;3.30;1.25;;;5.80;99.90;;;;;;5052266;28;20044;-75
2024/01/02 07:13:08;;;;;;;3.75;1.27;;;5.80;99.90;;;;;;5052584;28;20067;-75
2024/01/02 07:15:37;;;;;;;2.00;1.00;;;6.30;99.90;;;;;;5052646;28;20048;-75
2024/01/02 07:18:04;;;;;;;1.70;1.05;;;5.90;99.90;;;;;;5050743;28;20097;-75
2024/01/02 07:20:31;;;;;;;1.85;1.20;;;6.30;99.90;;;;;;5052177;28;20053;-75
2024/01/02 07:22:58;;;;;;;3.67;1.20;;;6.30;99.90;;;;;;5052508;28;20056;-75
2024/01/02 07:25:24;;;;;;;3.90;1.60;;;5.90;99.90;;;;;;5051701;28;20045;-75
2024/01/02 07:27:51;;;;;;;2.80;1.20;;;5.90;99.90;;;;;;5052391;28;20048;-76
2024/01/02 07:30:18;;;;;;;2.88;1.30;;;6.10;99.90;;;;;;5050894;28;20056;-75
2024/01/02 07:32:46;;;;;;;2.00;1.38;;;6.00;99.90;;;;;;5052189;28;20101;-76
2024/01/02 07:35:14;;;;;;;1.77;1.20;;;6.00;99.90;;;;;;5053182;28;20044;-76
2024/01/02 07:37:41;;;;;;;2.03;1.25;;;6.30;99.90;;;;;;5051501;28;20079;-75
2024/01/02 07:40:09;;;;;;;2.28;1.20;;;6.50;99.90;;;;;;5053136;28;20136;-75
2024/01/02 07:42:36;;;;;;;2.08;1.63;;;6.00;99.90;;;;;;5051648;28;20060;-75
2024/01/02 07:45:04;;;;;;;3.53;1.60;;;6.10;99.90;;;;;;5052263;28;20048;-75
2024/01/02 07:47:31;;;;;;;2.65;1.63;;;6.50;99.90;;;;;;5053460;28;20483;-75
2024/01/02 07:50:00;;;;;;;3.10;1.70;;;6.60;99.90;;;;;;5051675;28;20527;-75
2024/01/02 07:52:27;;;;;;;2.70;1.75;;;6.60;99.90;;;;;;5052428;28;20106;-75
2024/01/02 07:54:54;;;;;;;2.33;1.50;;;6.10;99.90;;;;;;5051903;28;20049;-75
2024/01/02 07:57:20;;;;;;;2.42;1.67;;;6.20;99.90;;;;;;5052533;28;20117;-74
2024/01/02 07:59:47;;;;;;;2.75;1.45;;;6.70;99.90;;;;;;5050523;28;20435;-75
2024/01/02 08:02:14;;;;;;;2.30;1.70;;;6.30;99.90;;;;;;5052508;28;20052;-75
2024/01/02 08:04:41;;;;;;;3.38;2.33;;;6.50;99.90;;;;;;5051449;28;20055;-74
2024/01/02 08:07:09;;;;;;;3.28;2.20;;;6.50;99.90;;;;;;5051163;28;20052;-74
2024/01/02 08:09:36;;;;;;;5.40;2.30;;;6.90;99.90;;;;;;5052454;28;20044;-74
2024/01/02 08:12:03;;;;;;;3.15;2.33;;;7.00;99.90;;;;;;5050638;28;20106;-74
2024/01/02 08:14:30;;;;;;;4.55;2.85;;;7.10;99.90;;;;;;5051180;28;20055;-75
2024/01/02 08:16:57;;;;;;;5.70;3.13;;;7.10;99.90;;;;;;5052693;28;20106;-74
2024/01/02 08:19:24;;;;;;;5.85;3.42;;;7.00;99.90;;;;;;5051639;28;20535;-74
2024/01/02 08:21:51;;;;;;;4.43;3.00;;;7.10;99.90;;;;;;5052796;28;20056;-74
2024/01/02 08:24:19;;;;;;;6.28;3.45;;;6.70;99.90;;;;;;5052403;28;20040;-74
2024/01/02 08:26:46;;;;;;;4.65;2.92;;;7.00;99.90;;;;;;5051350;28;20139;-74
2024/01/02 08:29:13;;;;;;;5.43;3.08;;;7.30;99.90;;;;;;5050677;28;20542;-75
2024/01/02 08:31:40;;;;;;;6.97;3.53;;;7.30;99.90;;;;;;5051109;28;20052;-74
2024/01/02 08:34:07;;;;;;;4.30;3.15;;;7.40;99.90;;;;;;5051542;28;20464;-74
2024/01/02 08:36:34;;;;;;;6.15;2.80;;;7.10;99.90;;;;;;5051368;28;20052;-74
2024/01/02 08:39:01;;;;;;;8.10;3.58;;;7.00;99.90;;;;;;5052631;28;20567;-74
2024/01/02 08:41:29;;;;;;;5.82;3.38;;;7.30;99.90;;;;;;5050559;28;20452;-73
2024/01/02 08:43:56;;;;;;;10.48;3.88;;;7.80;99.90;;;;;;5053673;28;20079;-74
2024/01/02 08:46:23;;;;;;;8.95;3.20;;;7.80;99.90;;;;;;5050478;28;20106;-73
2024/01/02 08:48:50;;;;;;;6.38;3.47;;;7.90;99.90;;;;;;5049266;28;20060;-74
2024/01/02 08:51:17;;;;;;;10.70;4.50;;;7.70;99.90;;;;;;5049679;28;20409;-74
2024/01/02 08:53:44;;;;;;;11.77;4.25;;;8.20;99.90;;;;;;5049711;28;20503;-74
2024/01/02 08:56:11;;;;;;;8.00;3.55;;;7.90;99.90;;;;;;5040529;28;20053;-73
2024/01/02 08:58:39;;;;;;;10.48;4.05;;;7.90;99.90;;;;;;5049762;28;20127;-74
2024/01/02 09:01:11;;;;;;;12.43;3.50;;;7.90;99.90;;;;;;5050022;28;20489;-74
2024/01/02 09:03:37;;;;;;;18.23;3.97;;;8.00;99.90;;;;;;5049506;28;20057;-74
2024/01/02 09:06:05;;;;;;;12.32;3.20;;;8.10;99.90;;;;;;5049571;28;20110;-73
2024/01/02 09:08:32;;;;;;;12.85;3.63;;;8.20;99.90;;;;;;5049424;28;20488;-74
2024/01/02 09:10:59;;;;;;;16.08;4.32;;;8.90;99.90;;;;;;5049463;28;20455;-73
2024/01/02 09:13:26;;;;;;;11.55;3.50;;;8.80;99.90;;;;;;5049391;28;20052;-75
2024/01/02 09:15:55;;;;;;;15.13;3.20;;;8.40;99.90;;;;;;5049266;28;20489;-74
2024/01/02 09:18:21;;;;;;;22.08;3.33;;;9.00;99.90;;;;;;5049712;28;20390;-74
2024/01/02 09:20:48;;;;;;;13.43;3.17;;;8.80;99.90;;;;;;5049861;28;20492;-74
2024/01/02 09:23:15;;;;;;;14.07;3.42;;;8.90;99.90;;;;;;5050549;28;20400;-73
2024/01/02 09:25:45;;;;;;;10.93;3.00;;;8.60;99.90;;;;;;5049900;28;20056;-73
2024/01/02 09:28:14;;;;;;;13.88;3.33;;;8.70;99.90;;;;;;5053430;28;20420;-73
2024/01/02 09:30:43;;;;;;;15.85;3.83;;;8.80;99.90;;;;;;5052600;28;20111;-73
2024/01/02 09:33:11;;;;;;;21.70;3.42;;;8.90;99.90;;;;;;5052861;28;20053;-73
2024/01/02 09:35:39;;;;;;;15.43;3.53;;;8.70;99.90;;;;;;5053337;28;20049;-73
2024/01/02 09:38:05;;;;;;;15.82;3.30;;;9.40;99.90;;;;;;5052452;28;20446;-74
2024/01/02 09:40:48;;;;;;;15.07;3.40;;;9.40;99.90;;;;;;5053332;28;20114;-74
2024/01/02 09:43:22;;;;;;;16.77;3.58;;;8.80;99.90;;;;;;5053223;28;20061;-74
2024/01/02 09:46:00;;;;;;;14.23;3.22;;;8.90;99.90;;;;;;5052470;28;20045;-73
2024/01/02 09:48:49;;;;;;;13.63;3.20;;;9.40;99.90;;;;;;5052584;28;20053;-73
2024/01/02 09:51:27;;;;;;;18.67;3.45;;;9.30;99.90;;;;;;5052026;28;20048;-74
2024/01/02 09:54:12;;;;;;;11.98;3.10;;;9.30;99.90;;;;;;5052745;28;20053;-73
2024/01/02 09:56:46;;;;;;;20.27;3.45;;;9.10;99.90;;;;;;5052932;28;20056;-74
2024/01/02 09:59:25;;;;;;;16.38;3.17;;;9.30;99.90;;;;;;5051837;28;20049;-73
2024/01/02 10:02:04;;;;;;;16.48;3.47;;;9.60;99.90;;;;;;5052681;28;20408;-73
2024/01/02 10:04:54;;;;;;;24.73;4.00;;;9.50;99.90;;;;;;5054275;28;20048;-73
2024/01/02 10:07:58;;;;;;;19.23;3.83;;;9.50;99.90;;;;;;5053099;28;20044;-73
2024/01/02 10:10:34;;;;;;;17.63;3.00;;;9.80;99.90;;;;;;5052787;28;20082;-74
2024/01/02 10:13:22;;;;;;;17.77;3.67;;;9.50;99.90;;;;;;5068667;28;20102;-73
2024/01/02 10:15:56;;;;;;;20.45;3.88;;;9.30;99.90;;;;;;5052169;28;20040;-74
2024/01/02 10:18:29;;;;;;;19.23;4.18;;;9.80;99.90;;;;;;5050717;28;20041;-73
2024/01/02 10:21:08;;;;;;;24.17;5.05;;;9.80;99.90;;;;;;5051865;28;20472;-73
2024/01/02 10:23:46;;;;;;;15.77;3.45;;;9.80;99.90;;;;;;5052072;28;20458;-73
2024/01/02 10:26:13;;;;;;;13.70;3.75;;;9.80;99.90;;;;;;5051554;28;20049;-74
2024/01/02 10:28:43;;;;;;;16.27;4.20;;;9.80;99.90;;;;;;5051743;28;20158;-74
2024/01/02 10:31:18;;;;;;;18.00;3.88;;;9.50;99.90;;;;;;5052299;28;20048;-74
2024/01/02 10:33:52;;;;;;;14.50;3.60;;;9.50;99.90;;;;;;5051395;28;20106;-74
2024/01/02 10:36:22;;;;;;;20.25;3.92;;;9.50;99.90;;;;;;5050685;28;20049;-72
2024/01/02 10:38:59;;;;;;;12.10;2.83;;;9.70;99.90;;;;;;5033575;28;20055;-73
2024/01/02 10:41:39;;;;;;;16.23;3.42;;;10.00;99.90;;;;;;5051747;28;20824;-74
2024/01/02 10:44:17;;;;;;;15.00;3.80;;;10.00;99.90;;;;;;5051766;28;20049;-74
2024/01/02 10:46:48;;;;;;;17.98;4.13;;;10.00;99.90;;;;;;5053570;28;20453;-74
2024/01/02 10:49:24;;;;;;;13.20;3.38;;;9.60;99.90;;;;;;5051169;28;20519;-73
2024/01/02 10:51:59;;;;;;;20.00;3.63;;;9.80;99.90;;;;;;5051619;28;20064;-73
2024/01/02 10:54:34;;;;;;;17.48;3.78;;;10.20;99.90;;;;;;5050687;28;20049;-73
2024/01/02 10:57:06;;;;;;;15.90;3.47;;;9.90;99.90;;;;;;5051478;28;20106;-73
2024/01/02 10:59:49;;;;;;;16.08;3.50;;;9.70;99.90;;;;;;5042536;28;20213;-74
2024/01/02 11:02:34;;;;;;;18.73;3.75;;;10.20;99.90;;;;;;5050882;28;20385;-73
2024/01/02 11:05:10;;;;;;;16.05;3.05;;;10.30;99.90;;;;;;5051246;28;20057;-74
2024/01/02 11:07:41;;;;;;;18.05;3.67;;;9.90;99.90;;;;;;5051372;28;20463;-74
2024/01/02 11:10:10;;;;;;;15.73;3.78;;;9.90;99.90;;;;;;5050541;28;20044;-74
2024/01/02 11:12:47;;;;;;;20.02;4.07;;;9.90;99.90;;;;;;5051157;28;20056;-73
2024/01/02 11:15:16;;;;;;;19.95;3.95;;;10.00;99.90;;;;;;5050603;28;20496;-74
2024/01/02 11:17:44;;;;;;;18.90;3.78;;;10.00;99.90;;;;;;5050833;28;20052;-74
2024/01/02 11:20:16;;;;;;;13.20;3.88;;;10.30;99.90;;;;;;5051061;28;20600;-74
2024/01/02 11:22:54;;;;;;;13.23;3.40;;;9.90;99.90;;;;;;5033258;28;20057;-73
2024/01/02 11:25:25;;;;;;;16.65;4.03;;;9.90;99.90;;;;;;5048385;28;20057;-74
2024/01/02 11:27:54;;;;;;;22.77;4.20;;;10.20;99.90;;;;;;5051025;28;20132;-73
2024/01/02 11:33:13;;;;;;;11.77;4.15;;;10.20;99.90;;;;;;5049274;28;20057;-74
2024/01/02 11:35:45;;;;;;;14.38;3.60;;;10.40;99.90;;;;;;5049579;28;20065;-73
2024/01/02 11:38:17;;;;;;;14.50;3.60;;;10.60;99.90;;;;;;5050010;28;20053;-73
2024/01/02 11:40:53;;;;;;;15.93;3.97;;;10.60;99.90;;;;;;5050743;28;20057;-73
2024/01/02 11:43:27;;;;;;;14.63;3.92;;;10.60;99.90;;;;;;5050245;28;20135;-72
2024/01/02 11:45:59;;;;;;;15.30;3.67;;;10.30;99.90;;;;;;5050770;28;20528;-72
2024/01/02 11:48:51;;;;;;;18.90;4.65;;;10.20;99.90;;;;;;5049955;28;20049;-73
2024/01/02 11:51:24;;;;;;;23.75;6.10;;;10.40;99.90;;;;;;5050247;28;20045;-73
2024/01/02 11:54:07;;;;;;;23.63;7.57;;;10.50;99.90;;;;;;5051039;28;20518;-74
2024/01/02 11:56:36;;;;;;;23.42;9.00;;;10.40;99.90;;;;;;5050765;28;20119;-73
2024/01/02 11:59:15;;;;;;;23.30;9.50;;;10.20;99.90;;;;;;5050489;28;20466;-74
2024/01/02 12:01:52;;;;;;;27.77;10.10;;;10.10;99.90;;;;;;5049945;28;20056;-74
2024/01/02 12:04:35;;;;;;;23.13;10.60;;;10.10;99.90;;;;;;5050335;28;20057;-74
2024/01/02 12:07:12;;;;;;;34.38;11.15;;;10.30;99.90;;;;;;5050926;28;20052;-74
2024/01/02 12:09:46;;;;;;;33.53;9.95;;;10.10;99.90;;;;;;5050732;28;20512;-74
2024/01/02 12:12:22;;;;;;;30.85;11.50;;;10.40;99.90;;;;;;5050149;28;20044;-74
2024/01/02 12:15:03;;;;;;;29.15;10.48;;;10.20;99.90;;;;;;5050892;28;20049;-74
2024/01/02 12:17:35;;;;;;;27.10;10.85;;;10.20;99.90;;;;;;5050767;28;20143;-74
2024/01/02 12:20:05;;;;;;;34.25;10.05;;;10.00;99.90;;;;;;5050198;28;20064;-74
2024/01/02 12:22:34;;;;;;;23.97;8.37;;;10.10;99.90;;;;;;5050987;28;20075;-74
2024/01/02 12:25:07;;;;;;;28.55;8.55;;;10.40;99.90;;;;;;5047806;28;20324;-74
2024/01/02 12:27:35;;;;;;;31.73;9.82;;;10.00;99.90;;;;;;5047967;28;20461;-73
2024/01/02 12:30:05;;;;;;;26.98;9.48;;;10.30;99.90;;;;;;5050372;28;20492;-74
2024/01/02 12:32:54;;;;;;;35.97;10.32;;;10.00;99.90;;;;;;5049799;28;20076;-74
2024/01/02 12:35:27;;;;;;;31.88;10.02;;;10.00;99.90;;;;;;5050524;28;20049;-73
2024/01/02 12:38:06;;;;;;;33.25;9.75;;;10.20;99.90;;;;;;5065403;28;20064;-73
2024/01/02 12:40:38;;;;;;;31.00;7.80;;;10.30;99.90;;;;;;5050235;28;20053;-73
2024/01/02 12:43:09;;;;;;;28.25;7.80;;;10.30;99.90;;;;;;5050811;28;20562;-73
2024/01/02 12:45:40;;;;;;;21.02;6.75;;;10.20;99.90;;;;;;5050954;28;20444;-73
2024/01/02 12:48:08;;;;;;;26.58;6.68;;;10.30;99.90;;;;;;5049690;28;20064;-74
2024/01/02 12:50:38;;;;;;;23.38;5.85;;;10.10;99.90;;;;;;5051082;28;20467;-72
2024/01/02 12:53:09;;;;;;;20.52;5.38;;;10.00;99.90;;;;;;5050533;28;20048;-73
2024/01/02 12:55:49;;;;;;;16.65;5.60;;;10.30;99.90;;;;;;5049965;28;20052;-74
2024/01/02 12:58:16;;;;;;;18.92;4.93;;;10.10;99.90;;;;;;5050749;28;20044;-72
2024/01/02 13:00:44;;;;;;;22.60;6.05;;;10.30;99.90;;;;;;5051295;28;20060;-73
2024/01/02 13:03:15;;;;;;;23.88;5.53;;;10.10;99.90;;;;;;5054347;28;20049;-74